Time;durP1;ratioP1;P1;durP2;ratioP2;P2;SDS_P1;SDS_P2;PMS_P1;PMS_P2;Temp;Humidity;BMP_temperature;BMP_pressure;BME280_temperature;BME280_humidity;BME280_pressure;Samples;Min_cycle;Max_cycle;Signal;HPM_P1;HPM_P2
2020/12/28 00:01:42;;;;;;;4.63;4.10;;;3.90;99.90;;;;;;5005013;28;20843;-53
2020/12/28 00:04:09;;;;;;;4.20;3.80;;;3.90;99.90;;;;;;4988021;28;20478;-53
2020/12/28 00:06:37;;;;;;;4.23;3.80;;;3.90;99.90;;;;;;4988061;28;21010;-53
2020/12/28 00:09:06;;;;;;;4.60;4.17;;;3.90;99.90;;;;;;4987884;28;20571;-54
2020/12/28 00:11:33;;;;;;;4.00;3.70;;;3.90;99.90;;;;;;5000389;28;20501;-56
2020/12/28 00:14:00;;;;;;;4.27;3.90;;;3.90;99.90;;;;;;5011293;28;21204;-54
2020/12/28 00:16:28;;;;;;;4.50;4.10;;;3.90;99.90;;;;;;5010431;28;21058;-53
2020/12/28 00:18:55;;;;;;;4.50;4.10;;;3.90;99.90;;;;;;5011353;28;20474;-54
2020/12/28 00:21:22;;;;;;;4.40;4.00;;;3.90;99.90;;;;;;5010582;28;20762;-54
2020/12/28 00:23:50;;;;;;;4.43;4.03;;;3.90;99.90;;;;;;5010968;28;21073;-53
2020/12/28 00:26:18;;;;;;;5.10;4.70;;;3.90;99.90;;;;;;5010731;28;20997;-53
2020/12/28 00:28:45;;;;;;;4.83;4.30;;;3.90;99.90;;;;;;5010870;28;20571;-53
2020/12/28 00:31:13;;;;;;;6.97;4.37;;;3.90;99.90;;;;;;5009416;28;20810;-53
2020/12/28 00:33:42;;;;;;;4.47;4.07;;;3.90;99.90;;;;;;5009403;28;20484;-53
2020/12/28 00:36:15;;;;;;;4.17;3.77;;;3.90;99.90;;;;;;5009038;28;20489;-53
2020/12/28 00:38:43;;;;;;;6.17;4.67;;;3.90;99.90;;;;;;5010882;28;20486;-53
2020/12/28 00:41:12;;;;;;;4.43;4.03;;;3.90;99.90;;;;;;5010243;28;20616;-53
2020/12/28 00:43:44;;;;;;;4.33;3.93;;;3.90;99.90;;;;;;5010396;28;20484;-54
2020/12/28 00:46:13;;;;;;;5.10;4.60;;;3.90;99.90;;;;;;5010472;28;20480;-53
2020/12/28 00:48:42;;;;;;;5.03;4.50;;;3.90;99.90;;;;;;5010461;28;20484;-53
2020/12/28 00:51:14;;;;;;;4.33;3.93;;;3.90;99.90;;;;;;5009001;28;20530;-53
2020/12/28 00:53:47;;;;;;;4.77;4.17;;;3.90;99.90;;;;;;5009040;28;20486;-53
2020/12/28 00:56:16;;;;;;;4.50;4.10;;;3.90;99.90;;;;;;5010331;28;20500;-53
2020/12/28 00:58:46;;;;;;;4.73;4.33;;;3.90;99.90;;;;;;5010602;28;20485;-54
2020/12/28 01:01:13;;;;;;;4.27;3.90;;;3.90;99.90;;;;;;4991910;28;20494;-54
2020/12/28 01:03:41;;;;;;;4.20;3.80;;;3.90;99.90;;;;;;5008981;28;20521;-53
2020/12/28 01:06:21;;;;;;;4.50;4.10;;;3.90;99.90;;;;;;5008681;28;20494;-53
2020/12/28 01:08:58;;;;;;;4.37;3.97;;;3.90;99.90;;;;;;4992823;28;20559;-55
2020/12/28 01:11:30;;;;;;;4.60;4.20;;;3.90;99.90;;;;;;4991648;28;20508;-53
2020/12/28 01:14:01;;;;;;;4.10;3.70;;;4.00;99.90;;;;;;5008642;28;20489;-54
2020/12/28 01:16:30;;;;;;;4.13;3.70;;;4.00;99.90;;;;;;4992146;28;20554;-53
2020/12/28 01:18:57;;;;;;;4.47;3.87;;;3.90;99.90;;;;;;5009853;28;20481;-54
2020/12/28 01:21:30;;;;;;;4.40;4.00;;;3.90;99.90;;;;;;4992188;28;20226;-53
2020/12/28 01:23:58;;;;;;;4.30;3.90;;;3.90;99.90;;;;;;4991851;28;20555;-54
2020/12/28 01:26:28;;;;;;;4.23;3.83;;;3.90;99.90;;;;;;4992470;28;20489;-54
2020/12/28 01:29:00;;;;;;;4.10;3.80;;;4.00;99.90;;;;;;4991984;28;21062;-53
2020/12/28 01:31:32;;;;;;;3.83;3.53;;;4.00;99.90;;;;;;5005592;28;20495;-53
2020/12/28 01:34:05;;;;;;;4.00;3.70;;;4.00;99.90;;;;;;5008952;28;20488;-53
2020/12/28 01:36:39;;;;;;;4.10;3.70;;;4.00;99.90;;;;;;4988599;28;20473;-53
2020/12/28 01:39:16;;;;;;;3.37;3.07;;;4.00;99.90;;;;;;4990055;28;21035;-53
2020/12/28 01:41:43;;;;;;;4.27;3.87;;;4.00;99.90;;;;;;4988217;28;20565;-54
2020/12/28 01:44:11;;;;;;;3.70;3.40;;;4.00;99.90;;;;;;4994655;28;20482;-53
2020/12/28 01:46:44;;;;;;;4.60;4.20;;;4.00;99.90;;;;;;5008212;28;20491;-53
2020/12/28 01:49:12;;;;;;;4.17;3.73;;;4.00;99.90;;;;;;4991999;28;20481;-53
2020/12/28 01:51:44;;;;;;;4.13;3.77;;;4.00;99.90;;;;;;5007657;28;20559;-53
2020/12/28 01:54:12;;;;;;;4.40;4.00;;;4.00;99.90;;;;;;5009186;28;20568;-53
2020/12/28 01:56:48;;;;;;;4.47;3.97;;;4.00;99.90;;;;;;4991794;28;20472;-54
2020/12/28 01:59:23;;;;;;;5.53;3.90;;;4.00;99.90;;;;;;5008139;28;21121;-53
2020/12/28 02:01:53;;;;;;;3.60;3.30;;;4.00;99.90;;;;;;5007333;28;20480;-53
2020/12/28 02:04:23;;;;;;;4.10;3.50;;;4.00;99.90;;;;;;5007670;28;20483;-54
2020/12/28 02:06:56;;;;;;;4.20;3.80;;;4.00;99.90;;;;;;5007637;28;20821;-53
2020/12/28 02:09:26;;;;;;;4.20;3.80;;;4.00;99.90;;;;;;5007816;28;20482;-53
2020/12/28 02:11:55;;;;;;;3.90;3.60;;;4.00;99.90;;;;;;5008569;28;20472;-53
2020/12/28 02:14:25;;;;;;;3.47;3.20;;;4.00;99.90;;;;;;5008861;28;20482;-53
2020/12/28 02:16:58;;;;;;;3.90;3.60;;;4.00;99.90;;;;;;5009057;28;20547;-54
2020/12/28 02:19:30;;;;;;;5.10;3.97;;;4.10;99.90;;;;;;4991441;28;20484;-53
2020/12/28 02:22:03;;;;;;;3.60;3.30;;;4.00;99.90;;;;;;4971665;28;20481;-53
2020/12/28 02:24:40;;;;;;;4.60;2.90;;;4.00;99.90;;;;;;4990934;28;20546;-53
2020/12/28 02:27:07;;;;;;;3.23;2.93;;;4.10;99.90;;;;;;5007592;28;20946;-53
2020/12/28 02:29:35;;;;;;;4.30;3.03;;;4.10;99.90;;;;;;5004975;28;20589;-53
2020/12/28 02:32:03;;;;;;;3.70;3.20;;;4.10;99.90;;;;;;5007530;28;20471;-53
2020/12/28 02:34:49;;;;;;;3.73;3.43;;;4.10;99.90;;;;;;5008390;28;20486;-53
2020/12/28 02:37:27;;;;;;;3.60;3.30;;;4.10;99.90;;;;;;4990286;28;20486;-53
2020/12/28 02:39:57;;;;;;;3.60;3.30;;;4.10;99.90;;;;;;5008625;28;20483;-53
2020/12/28 02:42:26;;;;;;;3.40;3.10;;;4.10;99.90;;;;;;4990604;28;20479;-53
2020/12/28 02:45:12;;;;;;;3.67;3.20;;;4.20;99.90;;;;;;5008891;28;20497;-54
2020/12/28 02:47:59;;;;;;;3.87;3.47;;;4.20;99.90;;;;;;5008720;28;20883;-54
2020/12/28 02:50:45;;;;;;;3.93;3.37;;;4.20;99.90;;;;;;5008457;28;20487;-53
2020/12/28 02:53:31;;;;;;;2.87;2.63;;;4.20;99.90;;;;;;5008694;28;21010;-53
2020/12/28 02:56:22;;;;;;;3.40;3.10;;;4.20;99.90;;;;;;4979758;28;20510;-53
2020/12/28 02:59:08;;;;;;;3.93;3.37;;;4.20;99.90;;;;;;5008263;28;20482;-53
2020/12/28 03:01:53;;;;;;;3.23;2.97;;;4.20;99.90;;;;;;5008035;28;20497;-53
2020/12/28 03:04:39;;;;;;;3.37;3.07;;;4.20;99.90;;;;;;4988913;28;20479;-53
2020/12/28 03:07:25;;;;;;;4.17;3.10;;;4.20;99.90;;;;;;4988730;28;20479;-53
2020/12/28 03:10:13;;;;;;;3.13;2.83;;;4.20;99.90;;;;;;4988236;28;20492;-53
2020/12/28 03:12:59;;;;;;;3.37;3.07;;;4.20;99.90;;;;;;5007530;28;20531;-53
2020/12/28 03:15:55;;;;;;;3.57;3.23;;;4.20;99.90;;;;;;4937590;28;20481;-53
2020/12/28 03:18:42;;;;;;;3.40;3.10;;;4.20;99.90;;;;;;5008230;28;20493;-53
2020/12/28 03:21:28;;;;;;;3.10;2.80;;;4.20;99.90;;;;;;5007574;28;20479;-53
2020/12/28 03:24:27;;;;;;;3.40;3.10;;;4.30;99.90;;;;;;4963679;28;20471;-53
2020/12/28 03:27:14;;;;;;;3.33;3.03;;;4.30;99.90;;;;;;5004929;28;20511;-53
2020/12/28 03:30:00;;;;;;;2.73;2.47;;;4.30;99.90;;;;;;5007933;28;21017;-53
2020/12/28 03:32:46;;;;;;;3.77;3.00;;;4.30;99.90;;;;;;5006806;28;20835;-55
2020/12/28 03:35:38;;;;;;;3.80;2.87;;;4.30;99.90;;;;;;5007463;28;20619;-54
2020/12/28 03:38:24;;;;;;;3.70;2.60;;;4.30;99.90;;;;;;5008126;28;21105;-53
2020/12/28 03:41:12;;;;;;;3.30;2.93;;;4.30;99.90;;;;;;5006884;28;20507;-54
2020/12/28 03:44:00;;;;;;;2.80;2.60;;;4.30;99.90;;;;;;5008045;28;20493;-55
2020/12/28 03:46:46;;;;;;;2.63;2.33;;;4.30;99.90;;;;;;5007229;28;20487;-53
2020/12/28 03:49:32;;;;;;;2.97;2.43;;;4.30;99.90;;;;;;5008086;28;20487;-53
2020/12/28 03:52:18;;;;;;;3.33;3.03;;;4.40;99.90;;;;;;5007130;28;20714;-53
2020/12/28 03:55:23;;;;;;;2.93;2.63;;;4.40;99.90;;;;;;4927702;29;20544;-53
2020/12/28 03:58:09;;;;;;;2.73;2.53;;;4.40;99.90;;;;;;4927818;29;20568;-53
2020/12/28 04:00:56;;;;;;;3.50;3.20;;;4.30;99.90;;;;;;4985685;28;20483;-53
2020/12/28 04:03:41;;;;;;;3.20;2.70;;;4.30;99.90;;;;;;5008269;28;20560;-54
2020/12/28 04:06:27;;;;;;;2.63;2.43;;;4.30;99.90;;;;;;5008245;28;20510;-53
2020/12/28 04:09:14;;;;;;;2.87;2.57;;;4.30;99.90;;;;;;5007306;28;20488;-53
2020/12/28 04:12:10;;;;;;;2.60;2.40;;;4.30;99.90;;;;;;4981482;28;20483;-53
2020/12/28 04:14:38;;;;;;;4.00;2.90;;;4.30;99.90;;;;;;5007188;28;20536;-54
2020/12/28 04:17:06;;;;;;;3.33;3.03;;;4.30;99.90;;;;;;5007656;28;20598;-56
2020/12/28 04:19:33;;;;;;;4.93;2.67;;;4.30;99.90;;;;;;5007623;28;20472;-54
2020/12/28 04:22:00;;;;;;;3.93;2.80;;;4.40;99.90;;;;;;5008101;28;21036;-53
2020/12/28 04:24:28;;;;;;;3.30;3.00;;;4.40;99.90;;;;;;5006573;28;20485;-53
2020/12/28 04:26:55;;;;;;;3.33;3.00;;;4.30;99.90;;;;;;5005701;28;20554;-53
2020/12/28 04:29:22;;;;;;;4.20;3.50;;;4.30;99.90;;;;;;5007165;28;21065;-53
2020/12/28 04:31:50;;;;;;;3.90;3.50;;;4.30;99.90;;;;;;5005467;28;20439;-55
2020/12/28 04:34:18;;;;;;;6.60;4.37;;;4.30;99.90;;;;;;5007383;28;20260;-54
2020/12/28 04:36:45;;;;;;;4.43;3.10;;;4.40;99.90;;;;;;5007375;28;20482;-53
2020/12/28 04:39:12;;;;;;;2.90;2.53;;;4.40;99.90;;;;;;5007152;28;20578;-53
2020/12/28 04:41:41;;;;;;;3.00;2.70;;;4.40;99.90;;;;;;5007007;28;20504;-54
2020/12/28 04:44:08;;;;;;;3.07;2.40;;;4.40;99.90;;;;;;5007613;28;20487;-53
2020/12/28 04:46:37;;;;;;;3.53;2.83;;;4.40;99.90;;;;;;5006952;28;20563;-54
2020/12/28 04:49:04;;;;;;;2.90;2.60;;;4.40;99.90;;;;;;5006868;28;21000;-55
2020/12/28 04:51:32;;;;;;;2.50;2.30;;;4.40;99.90;;;;;;5007313;28;20534;-54
2020/12/28 04:54:00;;;;;;;2.60;2.40;;;4.30;99.90;;;;;;5007139;28;20563;-54
2020/12/28 04:56:27;;;;;;;2.50;2.30;;;4.30;99.90;;;;;;5007041;28;20478;-54
2020/12/28 04:58:54;;;;;;;2.50;2.30;;;4.30;99.90;;;;;;5007212;28;20480;-55
2020/12/28 05:01:22;;;;;;;2.40;2.10;;;4.30;99.90;;;;;;5009834;28;20572;-54
2020/12/28 05:03:50;;;;;;;3.03;2.53;;;4.30;99.90;;;;;;5010650;28;20513;-53
2020/12/28 05:06:18;;;;;;;2.50;2.30;;;4.30;99.90;;;;;;5010241;28;20518;-53
2020/12/28 05:08:46;;;;;;;2.20;2.00;;;4.30;99.90;;;;;;5010671;28;20475;-54
2020/12/28 05:11:15;;;;;;;2.10;1.90;;;4.30;99.90;;;;;;5010217;28;20512;-53
2020/12/28 05:13:48;;;;;;;2.20;2.00;;;4.30;99.90;;;;;;5010304;28;20542;-53
2020/12/28 05:16:17;;;;;;;2.20;2.00;;;4.20;99.90;;;;;;5010387;28;20921;-54
2020/12/28 05:18:52;;;;;;;1.97;1.80;;;4.30;99.90;;;;;;5010516;28;20573;-53
2020/12/28 05:21:26;;;;;;;2.10;1.90;;;4.20;99.90;;;;;;5010275;28;20476;-53
2020/12/28 05:23:55;;;;;;;2.20;2.00;;;4.30;99.90;;;;;;5008096;28;20550;-54
2020/12/28 05:26:23;;;;;;;2.90;2.10;;;4.30;99.90;;;;;;5002451;28;20522;-53
2020/12/28 05:28:54;;;;;;;1.80;1.70;;;4.30;99.90;;;;;;5009649;28;20488;-53
2020/12/28 05:31:22;;;;;;;2.17;1.87;;;4.30;99.90;;;;;;5009361;28;20536;-53
2020/12/28 05:33:50;;;;;;;2.13;1.70;;;4.30;99.90;;;;;;5010076;28;20833;-53
2020/12/28 05:36:17;;;;;;;2.07;1.87;;;4.30;99.90;;;;;;5009867;28;21062;-53
2020/12/28 05:38:46;;;;;;;2.03;1.60;;;4.20;99.90;;;;;;5010215;28;20527;-53
2020/12/28 05:41:15;;;;;;;2.33;2.13;;;4.20;99.90;;;;;;5009597;28;20519;-53
2020/12/28 05:43:42;;;;;;;2.33;2.07;;;4.20;99.90;;;;;;5009249;28;21026;-54
2020/12/28 05:46:09;;;;;;;2.60;2.17;;;4.20;99.90;;;;;;5008884;28;20953;-53
2020/12/28 05:48:37;;;;;;;1.90;1.80;;;4.20;99.90;;;;;;4997966;28;20600;-55
2020/12/28 05:51:05;;;;;;;2.67;2.27;;;4.20;99.90;;;;;;5000015;28;21135;-54
2020/12/28 05:53:37;;;;;;;1.53;1.43;;;4.30;99.90;;;;;;4982592;28;21031;-53
2020/12/28 05:56:05;;;;;;;2.93;1.80;;;4.20;99.90;;;;;;4999570;28;20491;-53
2020/12/28 05:58:34;;;;;;;3.07;2.00;;;4.20;99.90;;;;;;5000170;28;20488;-53
2020/12/28 06:01:06;;;;;;;2.90;2.00;;;4.20;99.90;;;;;;4998581;28;20538;-54
2020/12/28 06:03:40;;;;;;;1.93;1.77;;;4.20;99.90;;;;;;4998326;28;20518;-53
2020/12/28 06:06:09;;;;;;;1.83;1.67;;;4.20;99.90;;;;;;4995743;28;20922;-53
2020/12/28 06:08:36;;;;;;;2.67;1.60;;;4.30;99.90;;;;;;4997082;28;20861;-54
2020/12/28 06:11:04;;;;;;;2.87;1.77;;;4.30;99.90;;;;;;4997530;28;20488;-53
2020/12/28 06:13:32;;;;;;;1.50;1.40;;;4.30;99.90;;;;;;4997675;28;20973;-53
2020/12/28 06:16:01;;;;;;;1.70;1.60;;;4.30;99.90;;;;;;4995795;28;20600;-54
2020/12/28 06:18:29;;;;;;;2.57;1.60;;;4.30;99.90;;;;;;4996419;28;20481;-53
2020/12/28 06:20:57;;;;;;;2.23;1.57;;;4.30;99.90;;;;;;4995658;28;20472;-54
2020/12/28 06:23:38;;;;;;;2.10;1.80;;;4.30;99.90;;;;;;4997078;28;21069;-53
2020/12/28 06:26:06;;;;;;;1.73;1.63;;;4.30;99.90;;;;;;4995445;28;20490;-53
2020/12/28 06:28:34;;;;;;;2.30;1.70;;;4.30;99.90;;;;;;4997028;28;20491;-54
2020/12/28 06:31:08;;;;;;;1.83;1.73;;;4.30;99.90;;;;;;4994887;28;20492;-53
2020/12/28 06:33:36;;;;;;;1.73;1.63;;;4.30;99.90;;;;;;4996995;28;20586;-54
2020/12/28 06:36:15;;;;;;;2.00;1.90;;;4.40;99.90;;;;;;4996476;28;20506;-53
2020/12/28 06:38:43;;;;;;;2.10;1.80;;;4.40;99.90;;;;;;4996382;28;21028;-53
2020/12/28 06:41:10;;;;;;;3.10;2.50;;;4.40;99.90;;;;;;4996194;28;20499;-53
2020/12/28 06:43:42;;;;;;;2.20;2.00;;;4.40;99.90;;;;;;4995835;28;20491;-53
2020/12/28 06:46:09;;;;;;;2.27;2.00;;;4.40;99.90;;;;;;4994001;28;20589;-54
2020/12/28 06:48:36;;;;;;;1.97;1.80;;;4.40;99.90;;;;;;4995642;28;21112;-55
2020/12/28 06:51:08;;;;;;;1.90;1.80;;;4.40;99.90;;;;;;4996103;28;21160;-54
2020/12/28 06:53:35;;;;;;;1.70;1.60;;;4.40;99.90;;;;;;4995266;28;20549;-54
2020/12/28 06:56:07;;;;;;;1.50;1.40;;;4.40;99.90;;;;;;4994445;28;20859;-53
2020/12/28 06:58:35;;;;;;;1.70;1.60;;;4.40;99.90;;;;;;4994586;28;20482;-53
2020/12/28 07:01:05;;;;;;;1.63;1.53;;;4.40;99.90;;;;;;4994738;28;20489;-54
2020/12/28 07:03:33;;;;;;;1.70;1.60;;;4.50;99.90;;;;;;4995207;28;20497;-54
2020/12/28 07:06:02;;;;;;;1.80;1.70;;;4.50;99.90;;;;;;4994270;28;20858;-53
2020/12/28 07:08:32;;;;;;;1.83;1.73;;;4.50;99.90;;;;;;4995038;28;20594;-54
2020/12/28 07:11:01;;;;;;;1.50;1.40;;;4.50;99.90;;;;;;4995384;28;20900;-54
2020/12/28 07:13:29;;;;;;;1.47;1.37;;;4.50;99.90;;;;;;4994081;28;20517;-53
2020/12/28 07:16:04;;;;;;;1.60;1.50;;;4.50;99.90;;;;;;4993042;28;20494;-53
2020/12/28 07:18:33;;;;;;;1.53;1.43;;;4.50;99.90;;;;;;4993646;28;20815;-53
2020/12/28 07:21:01;;;;;;;2.00;1.50;;;4.50;99.90;;;;;;4994493;28;20904;-54
2020/12/28 07:23:29;;;;;;;2.10;1.90;;;4.50;99.90;;;;;;4994220;28;20484;-53
2020/12/28 07:26:08;;;;;;;1.77;1.67;;;4.50;99.90;;;;;;4994040;28;20595;-55
2020/12/28 07:28:37;;;;;;;1.90;1.57;;;4.50;99.90;;;;;;4994292;28;20574;-53
2020/12/28 07:31:07;;;;;;;2.27;2.00;;;4.40;99.90;;;;;;4994203;28;21083;-54
2020/12/28 07:33:44;;;;;;;2.40;2.20;;;4.40;99.90;;;;;;4994344;28;20483;-54
2020/12/28 07:36:14;;;;;;;2.47;2.27;;;4.40;99.90;;;;;;4994089;28;21154;-54
2020/12/28 07:38:44;;;;;;;2.13;1.93;;;4.40;99.90;;;;;;4995927;28;20614;-54
2020/12/28 07:41:14;;;;;;;2.10;1.90;;;4.40;99.90;;;;;;4993570;28;21203;-54
2020/12/28 07:43:49;;;;;;;2.10;1.90;;;4.40;99.90;;;;;;4995637;28;20576;-53
2020/12/28 07:46:27;;;;;;;1.93;1.80;;;4.40;99.90;;;;;;4994221;28;20581;-53
2020/12/28 07:49:02;;;;;;;2.57;1.70;;;4.30;99.90;;;;;;4993541;28;20484;-55
2020/12/28 07:51:34;;;;;;;2.27;2.07;;;4.30;99.90;;;;;;4994440;28;20731;-54
2020/12/28 07:54:12;;;;;;;2.10;1.90;;;4.30;99.90;;;;;;4995834;28;20493;-54
2020/12/28 07:56:46;;;;;;;2.90;2.60;;;4.30;99.90;;;;;;4993747;28;20548;-53
2020/12/28 07:59:57;;;;;;;2.80;2.60;;;4.30;99.90;;;;;;4995397;28;20499;-53
2020/12/28 08:02:51;;;;;;;2.43;2.23;;;4.30;99.90;;;;;;4994510;28;20724;-54
2020/12/28 08:05:20;;;;;;;2.40;2.20;;;4.30;99.90;;;;;;4995493;28;20527;-53
2020/12/28 08:07:47;;;;;;;2.30;2.10;;;4.30;99.90;;;;;;4993856;28;20805;-54
2020/12/28 08:10:15;;;;;;;2.50;2.20;;;4.30;99.90;;;;;;4994755;28;20854;-53
2020/12/28 08:12:51;;;;;;;2.30;2.10;;;4.30;99.90;;;;;;4992799;28;20991;-53
2020/12/28 08:15:30;;;;;;;2.27;2.07;;;4.40;99.90;;;;;;4994442;28;20593;-55
2020/12/28 08:18:07;;;;;;;2.50;2.30;;;4.30;99.90;;;;;;4993629;28;20569;-53
2020/12/28 08:20:35;;;;;;;2.00;1.90;;;4.30;99.90;;;;;;4995418;28;20582;-53
2020/12/28 08:23:03;;;;;;;2.20;2.00;;;4.30;99.90;;;;;;4995395;28;20478;-54
2020/12/28 08:25:32;;;;;;;2.20;2.00;;;4.40;99.90;;;;;;4995777;28;20936;-53
2020/12/28 08:28:02;;;;;;;2.40;2.20;;;4.40;99.90;;;;;;4994007;28;20616;-53
2020/12/28 08:30:31;;;;;;;3.63;3.03;;;4.40;99.90;;;;;;4994951;28;20484;-53
2020/12/28 08:32:59;;;;;;;6.03;3.63;;;4.40;99.90;;;;;;4995172;28;20922;-53
2020/12/28 08:35:28;;;;;;;3.70;2.93;;;4.40;99.90;;;;;;4997643;28;20821;-53
2020/12/28 08:37:55;;;;;;;3.47;2.77;;;4.40;99.90;;;;;;4997536;28;20483;-54
2020/12/28 08:40:24;;;;;;;3.43;3.13;;;4.40;99.90;;;;;;4999118;28;20530;-53
2020/12/28 08:42:54;;;;;;;2.57;2.37;;;4.40;99.90;;;;;;4998657;28;20494;-54
2020/12/28 08:45:24;;;;;;;2.80;2.60;;;4.40;99.90;;;;;;4998427;28;20577;-54
2020/12/28 08:47:53;;;;;;;4.43;3.83;;;4.40;99.90;;;;;;4996528;28;20490;-53
2020/12/28 08:50:22;;;;;;;6.60;4.80;;;4.40;99.90;;;;;;4998397;28;20565;-53
2020/12/28 08:52:54;;;;;;;4.47;3.70;;;4.40;99.90;;;;;;4997145;28;20495;-53
2020/12/28 08:55:22;;;;;;;3.53;3.23;;;4.40;99.90;;;;;;4998669;28;20475;-53
2020/12/28 08:57:55;;;;;;;3.07;2.87;;;4.50;99.90;;;;;;4997700;28;20499;-53
2020/12/28 09:00:24;;;;;;;3.30;2.57;;;4.50;99.90;;;;;;4999535;28;20486;-54
2020/12/28 09:02:55;;;;;;;3.03;2.60;;;4.50;99.90;;;;;;4999608;28;20491;-53
2020/12/28 09:05:23;;;;;;;2.33;2.13;;;4.50;99.90;;;;;;4999465;28;20989;-56
2020/12/28 09:07:52;;;;;;;2.67;2.47;;;4.50;99.90;;;;;;4998505;28;20493;-53
2020/12/28 09:10:19;;;;;;;3.00;2.40;;;4.50;99.90;;;;;;4996982;28;20503;-54
2020/12/28 09:12:46;;;;;;;3.07;2.70;;;4.50;99.90;;;;;;4998388;28;20486;-53
2020/12/28 09:15:14;;;;;;;2.50;2.30;;;4.50;99.90;;;;;;4999458;28;20490;-53
2020/12/28 09:17:42;;;;;;;3.03;2.50;;;4.50;99.90;;;;;;4997340;28;20509;-54
2020/12/28 09:20:09;;;;;;;3.17;2.80;;;4.50;99.90;;;;;;4999471;28;20522;-54
2020/12/28 09:22:37;;;;;;;3.13;2.60;;;4.50;99.90;;;;;;5000803;28;20565;-55
2020/12/28 09:25:05;;;;;;;4.27;2.93;;;4.50;99.90;;;;;;5001333;28;20515;-54
2020/12/28 09:27:32;;;;;;;4.03;3.10;;;4.50;99.90;;;;;;4999319;28;20607;-54
2020/12/28 09:29:59;;;;;;;5.17;3.30;;;4.50;99.90;;;;;;5000324;28;20584;-53
2020/12/28 09:32:26;;;;;;;4.27;3.33;;;4.50;99.90;;;;;;4999406;28;20472;-53
2020/12/28 09:34:54;;;;;;;4.73;3.30;;;4.50;99.90;;;;;;5001188;28;20682;-53
2020/12/28 09:37:21;;;;;;;4.57;2.53;;;4.60;99.90;;;;;;4998649;28;20580;-54
2020/12/28 09:39:48;;;;;;;3.63;2.63;;;4.60;99.90;;;;;;5000679;28;21064;-53
2020/12/28 09:42:18;;;;;;;2.67;2.47;;;4.60;99.90;;;;;;5001292;28;21015;-55
2020/12/28 09:44:49;;;;;;;4.00;2.97;;;4.60;99.90;;;;;;5005654;28;20541;-54
2020/12/28 09:47:17;;;;;;;4.47;3.10;;;4.60;99.90;;;;;;5008275;28;20481;-54
2020/12/28 09:49:44;;;;;;;4.70;2.93;;;4.60;99.90;;;;;;5007992;28;20979;-54
2020/12/28 09:52:11;;;;;;;3.23;2.93;;;4.60;99.90;;;;;;5007664;28;21064;-53
2020/12/28 09:54:39;;;;;;;5.13;3.00;;;4.60;99.90;;;;;;5006928;28;20478;-53
2020/12/28 09:57:07;;;;;;;3.90;2.60;;;4.60;99.90;;;;;;5005370;28;20954;-55
2020/12/28 09:59:38;;;;;;;3.07;2.77;;;4.60;99.90;;;;;;5009392;28;20504;-53
2020/12/28 10:02:07;;;;;;;4.43;3.07;;;4.60;99.90;;;;;;5009119;28;20978;-54
2020/12/28 10:04:34;;;;;;;2.70;2.50;;;4.70;99.90;;;;;;5009184;28;20487;-54
2020/12/28 10:07:02;;;;;;;2.93;2.73;;;4.70;99.90;;;;;;5008486;28;20241;-55
2020/12/28 10:09:29;;;;;;;3.20;2.90;;;4.80;99.90;;;;;;5007475;28;20532;-53
2020/12/28 10:11:57;;;;;;;5.23;3.27;;;4.70;99.90;;;;;;5006359;28;21005;-53
2020/12/28 10:14:24;;;;;;;6.03;3.30;;;4.80;99.90;;;;;;5002348;28;20527;-54
2020/12/28 10:16:52;;;;;;;3.93;3.50;;;4.70;99.90;;;;;;5008146;28;20544;-53
2020/12/28 10:19:19;;;;;;;6.40;3.77;;;4.70;99.90;;;;;;5007738;28;20572;-53
2020/12/28 10:21:47;;;;;;;10.93;4.27;;;4.70;99.90;;;;;;5007794;28;20490;-53
2020/12/28 10:24:14;;;;;;;3.30;3.00;;;4.70;99.90;;;;;;5008807;28;20535;-54
2020/12/28 10:26:41;;;;;;;3.57;3.17;;;4.70;99.90;;;;;;5008770;28;20486;-54
2020/12/28 10:29:09;;;;;;;3.27;2.80;;;4.70;99.90;;;;;;5008946;28;20515;-53
2020/12/28 10:31:36;;;;;;;3.47;2.67;;;4.80;99.90;;;;;;5007987;28;21046;-53
2020/12/28 10:34:04;;;;;;;3.00;2.57;;;4.80;99.90;;;;;;5008531;28;20567;-54
2020/12/28 10:36:31;;;;;;;3.00;2.70;;;4.80;99.90;;;;;;5007079;28;20494;-55
2020/12/28 10:38:59;;;;;;;3.00;2.70;;;4.80;99.90;;;;;;5009014;28;20483;-53
2020/12/28 10:41:29;;;;;;;2.80;2.60;;;4.80;99.90;;;;;;5008047;28;20484;-53
2020/12/28 10:43:57;;;;;;;3.23;2.80;;;4.80;99.90;;;;;;5008273;28;20510;-53
2020/12/28 10:46:25;;;;;;;3.13;2.80;;;4.90;99.90;;;;;;5008293;28;20518;-55
2020/12/28 10:48:56;;;;;;;2.93;2.53;;;4.90;99.90;;;;;;5007693;28;20501;-53
2020/12/28 10:51:25;;;;;;;3.07;2.47;;;4.90;99.90;;;;;;5007931;28;20494;-53
2020/12/28 10:53:52;;;;;;;2.93;2.67;;;4.90;99.90;;;;;;5008442;28;20503;-53
2020/12/28 10:56:23;;;;;;;3.20;2.90;;;5.00;99.90;;;;;;5007703;28;20487;-53
2020/12/28 10:58:51;;;;;;;3.37;3.07;;;4.90;99.90;;;;;;5007569;28;20258;-54
2020/12/28 11:01:21;;;;;;;2.70;2.23;;;4.90;99.90;;;;;;5007231;28;20498;-54
2020/12/28 11:03:50;;;;;;;2.50;2.30;;;4.90;99.90;;;;;;5010931;28;20480;-53
2020/12/28 11:06:18;;;;;;;4.27;2.67;;;4.90;99.90;;;;;;5014984;28;20491;-53
2020/12/28 11:08:47;;;;;;;2.63;2.40;;;4.90;99.90;;;;;;5005839;28;20815;-53
2020/12/28 11:11:16;;;;;;;4.03;3.40;;;5.00;99.90;;;;;;5007905;28;20500;-53
2020/12/28 11:13:43;;;;;;;3.30;3.00;;;5.00;99.90;;;;;;5008080;28;20483;-53
2020/12/28 11:16:11;;;;;;;3.27;2.50;;;5.10;99.90;;;;;;5008083;28;20538;-54
2020/12/28 11:18:39;;;;;;;3.57;2.70;;;5.00;99.90;;;;;;5006790;28;20573;-54
2020/12/28 11:21:07;;;;;;;5.77;3.53;;;5.00;99.90;;;;;;5007445;28;20494;-53
2020/12/28 11:26:21;;;;;;;3.30;2.90;;;5.10;99.90;;;;;;5007734;28;20545;-53
2020/12/28 11:28:48;;;;;;;3.73;3.10;;;5.10;99.90;;;;;;5008072;28;20536;-54
2020/12/28 11:31:17;;;;;;;2.80;2.60;;;5.10;99.90;;;;;;5007612;28;20482;-53
2020/12/28 11:33:46;;;;;;;4.17;2.80;;;5.10;99.90;;;;;;5007273;28;21189;-53
2020/12/28 11:36:14;;;;;;;4.13;2.90;;;5.30;99.90;;;;;;5007885;28;20550;-54
2020/12/28 11:38:43;;;;;;;3.43;2.57;;;5.20;99.90;;;;;;5008192;28;21002;-54
2020/12/28 11:41:13;;;;;;;2.47;2.27;;;5.20;99.90;;;;;;5007120;28;20483;-53
2020/12/28 11:43:42;;;;;;;2.97;2.10;;;5.20;99.90;;;;;;5006964;28;20505;-54
2020/12/28 11:46:10;;;;;;;2.60;2.40;;;5.30;99.90;;;;;;5007498;28;20490;-53
2020/12/28 11:48:39;;;;;;;2.90;2.50;;;5.30;99.90;;;;;;5007230;28;20503;-54
2020/12/28 11:51:08;;;;;;;3.00;2.53;;;5.40;99.90;;;;;;5007382;28;20503;-54
2020/12/28 11:53:37;;;;;;;2.80;2.50;;;5.30;99.90;;;;;;5007980;28;20467;-53
2020/12/28 11:56:05;;;;;;;3.00;2.60;;;5.40;99.90;;;;;;5007632;28;20483;-53
2020/12/28 11:58:35;;;;;;;2.90;2.67;;;5.30;99.90;;;;;;5007509;28;20483;-54
2020/12/28 12:01:05;;;;;;;2.83;2.60;;;5.40;99.90;;;;;;5005654;28;21011;-53
2020/12/28 12:03:33;;;;;;;3.10;2.73;;;5.40;99.90;;;;;;5007856;28;20554;-53
2020/12/28 12:06:00;;;;;;;3.23;2.60;;;5.40;99.90;;;;;;5005834;28;20616;-53
2020/12/28 12:08:29;;;;;;;3.23;2.50;;;5.40;99.90;;;;;;5008481;28;20558;-53
2020/12/28 12:10:56;;;;;;;3.07;2.43;;;5.50;99.90;;;;;;5011110;28;20630;-55
2020/12/28 12:13:24;;;;;;;3.13;2.67;;;5.50;99.90;;;;;;5011263;28;20482;-55
2020/12/28 12:15:52;;;;;;;2.90;2.50;;;5.60;99.90;;;;;;5011447;28;20565;-53
2020/12/28 12:18:24;;;;;;;2.93;2.70;;;5.60;99.90;;;;;;5011447;28;20491;-53
2020/12/28 12:20:51;;;;;;;3.83;3.43;;;5.50;99.90;;;;;;5011596;28;20501;-54
2020/12/28 12:23:19;;;;;;;4.93;3.40;;;5.60;99.90;;;;;;5011063;28;20533;-54
2020/12/28 12:25:46;;;;;;;3.40;3.10;;;5.70;99.90;;;;;;5010625;28;20555;-53
2020/12/28 12:28:13;;;;;;;3.20;2.90;;;5.60;99.90;;;;;;5010940;28;20527;-53
2020/12/28 12:30:40;;;;;;;2.83;2.63;;;5.60;99.90;;;;;;5010901;28;20490;-53
2020/12/28 12:33:08;;;;;;;3.30;2.93;;;5.60;99.90;;;;;;5010918;28;20566;-54
2020/12/28 12:35:36;;;;;;;2.87;2.67;;;5.60;99.90;;;;;;5011140;28;20551;-54
2020/12/28 12:38:03;;;;;;;2.87;2.67;;;5.50;99.90;;;;;;5011418;28;20483;-53
2020/12/28 12:40:35;;;;;;;4.60;2.93;;;5.50;99.90;;;;;;5010876;28;20709;-55
2020/12/28 12:43:02;;;;;;;3.20;2.90;;;5.50;99.90;;;;;;5011304;28;20483;-53
2020/12/28 12:45:29;;;;;;;2.73;2.53;;;5.50;99.90;;;;;;5010919;28;21042;-54
2020/12/28 12:47:57;;;;;;;5.03;3.00;;;5.50;99.90;;;;;;5010837;28;20554;-53
2020/12/28 12:50:24;;;;;;;2.80;2.53;;;5.50;99.90;;;;;;5010704;28;20484;-53
2020/12/28 12:52:52;;;;;;;4.13;2.80;;;5.50;99.90;;;;;;5010247;28;20523;-53
2020/12/28 12:55:20;;;;;;;3.50;2.80;;;5.50;99.90;;;;;;5010553;28;20506;-53
2020/12/28 12:57:48;;;;;;;2.53;2.33;;;5.50;99.90;;;;;;5010781;28;20478;-56
2020/12/28 13:00:18;;;;;;;2.60;2.40;;;5.50;99.90;;;;;;5008971;28;20584;-54
2020/12/28 13:02:46;;;;;;;3.90;3.40;;;5.70;99.90;;;;;;5007390;28;20244;-53
2020/12/28 13:05:14;;;;;;;3.70;3.23;;;5.60;99.90;;;;;;5010076;28;20475;-53
2020/12/28 13:07:42;;;;;;;3.13;2.83;;;5.60;99.90;;;;;;5010095;28;20326;-53
2020/12/28 13:10:11;;;;;;;3.50;3.20;;;5.70;99.90;;;;;;5010193;28;20276;-53
2020/12/28 13:12:39;;;;;;;3.57;3.23;;;5.60;99.90;;;;;;5002252;28;20302;-53
2020/12/28 13:15:09;;;;;;;3.53;3.17;;;5.50;99.90;;;;;;5000914;28;21075;-54
2020/12/28 13:17:36;;;;;;;5.07;3.87;;;5.50;99.90;;;;;;5000109;28;20614;-53
2020/12/28 13:20:05;;;;;;;3.43;3.10;;;5.60;99.90;;;;;;4999122;28;20265;-54
2020/12/28 13:22:32;;;;;;;3.47;3.17;;;5.60;99.90;;;;;;4998413;28;20490;-53